»·PEaware :: WWW853 KPMD-KLAS

WWW853 :: KPMD-KLAS

FLIGHT INFORMATION

Flight Status: Arrived
Operator: Unknown
More flights by this operator :: More flights under this callsign
Pilot: Isaac R. (8401)
Aircraft: BOEING 737-600
(B736)
More flights by this aircraft type
Origin: KPMD Palmdale AF Plant 42
United States
Destination: KLAS McCarran Intl
United States
More flights between these airports :: More routes between these airports
Route: +DAG CLARR3
File this flight plan on PilotEdge
Remarks:
Altitude:
(Current/Filed)
27,000ft
Speed:
(Current/Filed)
185kts
Departed: 29-Apr-19 04:56 PM
Arrived: 29-Apr-19 05:36 PM
Distance/Time
Traveled:
168nm/0:40
Distance/Time
To Go:
Arrived

Flight Plot

Page will automatically refresh every two minutes.

Flight plan parsing failed; only flown route is shown


Map Options




Map Legend


Flown Route
Filed Route
Departure Airport
Arrival Airport
Navaid (VOR, NDB)
Fix

Horizontal Profiles

Position Reports

Time Latitude Longitude Heading Altitude Ground
Speed
29-Apr-19 16:33 34.636500 -118.098354 96 2551ft 0kts
29-Apr-19 16:34 34.636500 -118.098354 96 2551ft 0kts
29-Apr-19 16:35 34.636500 -118.098354 96 2551ft 0kts
29-Apr-19 16:36 34.636500 -118.098354 96 2551ft 0kts
29-Apr-19 16:44 34.640271 -118.071721 265 2551ft 0kts
29-Apr-19 16:45 34.640271 -118.071721 265 2551ft 0kts
29-Apr-19 16:46 34.640271 -118.071721 265 2551ft 0kts
29-Apr-19 16:47 34.640271 -118.071721 265 2551ft 0kts
29-Apr-19 16:48 34.640271 -118.071721 265 2551ft 0kts
29-Apr-19 16:49 34.640271 -118.071721 265 2551ft 0kts
29-Apr-19 16:50 34.640271 -118.071723 265 2551ft 0kts
29-Apr-19 16:51 34.639674 -118.072048 169 2551ft 14kts
29-Apr-19 16:52 34.635593 -118.072038 266 2551ft 7kts
29-Apr-19 16:53 34.634233 -118.073746 176 2551ft 8kts
29-Apr-19 16:54 34.632762 -118.073783 251 2551ft 2kts
29-Apr-19 16:55 34.632085 -118.087993 264 2619ft 132kts
29-Apr-19 16:56 34.648746 -118.131691 344 5567ft 165kts
29-Apr-19 16:57 34.681044 -118.096073 68 8489ft 189kts
29-Apr-19 16:58 34.690217 -118.027478 83 11362ft 235kts
29-Apr-19 16:59 34.706781 -117.936246 75 13640ft 320kts
29-Apr-19 17:00 34.728389 -117.824270 76 17220ft 352kts
29-Apr-19 17:01 34.751138 -117.705373 76 20989ft 370kts
29-Apr-19 17:02 34.774582 -117.582751 75 25052ft 367kts
29-Apr-19 17:03 34.798000 -117.461256 75 26827ft 369kts
29-Apr-19 17:04 34.820934 -117.340689 76 26827ft 366kts
29-Apr-19 17:05 34.843767 -117.219625 76 26820ft 366kts
29-Apr-19 17:06 34.866466 -117.098500 77 26790ft 367kts
29-Apr-19 17:07 34.889078 -116.977057 77 26763ft 361kts
29-Apr-19 17:09 34.911694 -116.856227 78 26745ft 369kts
29-Apr-19 17:10 34.934026 -116.734395 78 26742ft 369kts
29-Apr-19 17:11 34.961549 -116.600607 68 26767ft 440kts
29-Apr-19 17:12 35.034104 -116.487830 42 26218ft 394kts
29-Apr-19 17:13 35.109993 -116.394346 42 24109ft 367kts
29-Apr-19 17:14 35.188802 -116.295616 43 23791ft 441kts
29-Apr-19 17:15 35.273625 -116.188918 43 21391ft 430kts
29-Apr-19 17:16 35.352435 -116.089610 44 18748ft 356kts
29-Apr-19 17:17 35.413962 -116.012216 45 17766ft 285kts
29-Apr-19 17:18 35.472883 -115.937996 45 16883ft 330kts
29-Apr-19 17:19 35.537351 -115.856272 46 15640ft 331kts
29-Apr-19 17:20 35.600507 -115.775802 46 14427ft 325kts
29-Apr-19 17:21 35.663425 -115.695460 46 13218ft 321kts
29-Apr-19 17:22 35.722822 -115.619582 46 12989ft 294kts
29-Apr-19 17:23 35.784236 -115.577606 4 12967ft 238kts
29-Apr-19 17:24 35.849217 -115.575907 358 12592ft 234kts
29-Apr-19 17:25 35.924587 -115.575595 358 11461ft 297kts
29-Apr-19 17:25 35.994111 -115.574052 13 10611ft 300kts
29-Apr-19 17:27 36.033168 -115.473086 82 10014ft 296kts
29-Apr-19 17:28 36.042654 -115.372579 98 9870ft 291kts
29-Apr-19 17:28 36.030824 -115.291035 102 8728ft 281kts
29-Apr-19 17:30 36.015051 -115.183634 102 6970ft 263kts
29-Apr-19 17:31 36.052864 -115.121745 22 6010ft 242kts
29-Apr-19 17:31 36.102740 -115.097092 22 5424ft 219kts
29-Apr-19 17:32 36.151318 -115.085994 317 4041ft 159kts
29-Apr-19 17:33 36.143160 -115.131453 211 3098ft 161kts
29-Apr-19 17:34 36.106143 -115.152792 206 2397ft 133kts
29-Apr-19 17:35 36.084460 -115.165606 224 2189ft 19kts
29-Apr-19 17:36 36.085265 -115.166203 24 2189ft 18kts
29-Apr-19 17:37 36.089478 -115.163981 328 2189ft 7kts
29-Apr-19 17:38 36.090687 -115.165127 283 2189ft 6kts
29-Apr-19 17:39 36.091064 -115.164808 73 2189ft 0kts
29-Apr-19 17:40 36.091064 -115.164807 73 2189ft 0kts
29-Apr-19 17:41 36.091064 -115.164807 73 2189ft 0kts

Navigation Log

Ident Type
Flight plan parsing failed, navigation log unavailable